Time;durP1;ratioP1;P1;durP2;ratioP2;P2;SDS_P1;SDS_P2;PMS_P1;PMS_P2;Temp;Humidity;BMP_temperature;BMP_pressure;BME280_temperature;BME280_humidity;BME280_pressure;Samples;Min_cycle;Max_cycle;Signal;HPM_P1;HPM_P2
2022/03/08 05:13:23;;;;;;;15.02;9.75;;;;;;;-1.93;72.19;101119.03;6247273;22;20016;-94
2022/03/08 05:49:07;;;;;;;16.25;9.73;;;;;;;-2.01;73.46;101137.91;6251174;23;20383;-94
2022/03/08 05:52:49;;;;;;;15.40;10.10;;;;;;;-1.96;73.26;101134.53;6229832;23;20014;-94
2022/03/08 06:37:07;;;;;;;14.07;9.60;;;;;;;-1.57;71.35;101154.13;6279619;22;20186;-96
2022/03/08 06:48:07;;;;;;;17.40;10.70;;;;;;;-1.50;70.51;101146.47;6127899;23;20025;-92
2022/03/08 06:50:34;;;;;;;16.85;10.93;;;;;;;-1.34;71.21;101164.88;6121563;23;20247;-93
2022/03/08 06:53:01;;;;;;;18.05;11.27;;;;;;;-1.37;70.49;101151.81;6120882;23;20020;-94
2022/03/08 06:55:29;;;;;;;17.02;11.25;;;;;;;-1.47;70.64;101122.25;6100232;23;20021;-95
2022/03/08 06:58:10;;;;;;;14.80;10.30;;;;;;;-1.17;69.94;101166.84;6118881;23;20044;-94
2022/03/08 07:00:38;;;;;;;16.50;10.88;;;;;;;-1.48;69.49;101103.22;6221446;23;20045;-94
2022/03/08 07:03:23;;;;;;;15.68;10.32;;;;;;;-1.06;69.92;101170.44;6129728;23;20121;-94
2022/03/08 07:06:05;;;;;;;15.52;10.85;;;;;;;-1.36;69.16;101106.81;6130527;23;20018;-95
2022/03/08 07:09:36;;;;;;;15.80;10.67;;;;;;;-1.05;69.21;101155.72;6130326;23;20072;-92
2022/03/08 07:12:03;;;;;;;16.98;10.75;;;;;;;-0.89;69.03;101170.63;6131384;23;20018;-93
2022/03/08 07:14:33;;;;;;;16.92;10.30;;;;;;;-0.87;68.89;101158.53;6129586;23;20028;-92
2022/03/08 07:17:00;;;;;;;17.10;10.55;;;;;;;-0.99;68.53;101123.72;6127203;23;20045;-92
2022/03/08 07:19:27;;;;;;;15.38;10.23;;;;;;;-0.56;68.39;101190.09;6132997;23;20053;-93
2022/03/08 07:25:52;;;;;;;16.45;10.93;;;;;;;-0.33;67.43;101193.81;6133374;23;20045;-94
2022/03/08 07:29:04;;;;;;;17.90;10.98;;;;;;;-0.31;66.62;101158.22;6130250;23;20064;-94
2022/03/08 07:34:48;;;;;;;18.33;9.82;;;;;;;-0.09;64.85;101118.53;6111186;22;20028;-94
2022/03/08 07:37:35;;;;;;;15.77;10.27;;;;;;;0.21;64.74;101135.22;6257141;22;20679;-94
2022/03/08 07:40:27;;;;;;;17.83;10.73;;;;;;;0.42;63.48;101134.50;6223632;23;20008;-94
2022/03/08 07:42:59;;;;;;;15.57;9.98;;;;;;;0.80;63.11;101172.06;6227497;23;20384;-94
2022/03/08 07:46:06;;;;;;;13.85;9.90;;;;;;;0.93;62.35;101173.91;6227895;23;20305;-94
2022/03/08 07:48:40;;;;;;;16.60;10.40;;;;;;;1.07;61.55;101167.88;6227646;23;20016;-95
2022/03/08 07:55:39;;;;;;;13.55;9.48;;;;;;;1.34;61.08;101154.91;6220020;23;20020;-94
2022/03/08 07:58:21;;;;;;;13.05;9.85;;;;;;;1.11;60.30;101091.34;6236247;23;20028;-94
2022/03/08 08:04:31;;;;;;;15.68;10.30;;;;;;;1.74;58.86;101155.84;6160799;23;20056;-93
2022/03/08 08:07:15;;;;;;;20.35;10.55;;;;;;;1.86;59.73;101155.00;6150203;23;20021;-91
2022/03/08 08:10:04;;;;;;;16.27;10.48;;;;;;;2.14;59.26;101161.09;6170676;23;20017;-92
2022/03/08 08:12:51;;;;;;;20.00;10.30;;;;;;;2.13;58.61;101121.03;6172138;23;20009;-94
2022/03/08 08:15:59;;;;;;;15.75;9.57;;;;;;;2.60;57.82;101174.97;6082239;23;20082;-94
2022/03/08 08:21:58;;;;;;;13.20;9.90;;;;;;;2.73;56.75;101137.44;6130334;23;20024;-94
2022/03/08 08:25:10;;;;;;;16.60;10.50;;;;;;;2.80;55.73;101126.09;6126570;23;20033;-95
2022/03/08 08:27:42;;;;;;;17.75;10.30;;;;;;;2.94;56.21;101124.31;6131333;23;20066;-95
2022/03/08 08:30:28;;;;;;;14.98;10.18;;;;;;;3.15;55.08;101145.13;6155479;23;20014;-95
2022/03/08 08:33:21;;;;;;;15.30;10.32;;;;;;;3.42;55.48;101166.81;6252630;23;20023;-94
2022/03/08 08:35:50;;;;;;;18.10;10.45;;;;;;;3.44;54.62;101151.97;6248885;22;20024;-92
2022/03/08 08:38:21;;;;;;;18.25;11.45;;;;;;;3.32;54.39;101125.84;6225388;23;20020;-94
2022/03/08 08:40:48;;;;;;;14.02;11.00;;;;;;;3.54;55.35;101137.94;6253878;23;20019;-93
2022/03/08 08:43:25;;;;;;;15.48;10.80;;;;;;;3.66;53.67;101145.69;6262310;23;20043;-94
2022/03/08 08:45:52;;;;;;;13.82;10.40;;;;;;;3.70;53.15;101113.38;6231836;23;20024;-94
2022/03/08 08:48:29;;;;;;;16.30;10.77;;;;;;;4.16;52.59;101136.56;6251863;23;20107;-96
2022/03/08 08:50:59;;;;;;;13.50;10.25;;;;;;;4.35;51.70;101113.69;6251708;23;20012;-95
2022/03/08 08:53:41;;;;;;;16.45;10.38;;;;;;;4.84;50.15;101103.50;6237096;23;20024;-94
2022/03/08 08:56:10;;;;;;;13.75;10.18;;;;;;;5.49;48.39;101114.88;6234173;23;20102;-95
2022/03/08 08:58:37;;;;;;;14.18;9.95;;;;;;;5.82;47.28;101090.72;6251035;23;20027;-94
2022/03/08 09:01:10;;;;;;;14.82;9.85;;;;;;;6.91;44.41;101151.00;6174241;23;20012;-95
2022/03/08 09:04:11;;;;;;;12.38;9.50;;;;;;;6.99;43.66;101093.78;6228982;23;20234;-96
2022/03/08 09:07:00;;;;;;;10.63;8.98;;;;;;;7.66;41.33;101115.13;6098862;23;20014;-94
2022/03/08 09:09:47;;;;;;;12.23;9.10;;;;;;;8.00;41.58;101123.97;6015031;23;20099;-96
2022/03/08 09:12:25;;;;;;;12.02;8.95;;;;;;;8.12;40.37;101092.91;6014870;23;20075;-93
2022/03/08 09:15:09;;;;;;;;;;;;;;;;;;;;;
2022/03/08 09:17:56;;;;;;;11.07;8.73;;;;;;;8.71;38.14;101076.34;6007448;23;20020;-94
2022/03/08 09:21:05;;;;;;;12.43;9.27;;;;;;;9.14;37.94;101130.56;6026345;23;20019;-93
2022/03/08 09:24:13;;;;;;;12.23;8.55;;;;;;;9.33;37.92;101110.59;6037609;23;20027;-92
2022/03/08 09:27:11;;;;;;;11.05;8.60;;;;;;;9.63;36.78;101123.78;6039769;23;20023;-93
2022/03/08 09:30:22;;;;;;;10.63;8.10;;;;;;;9.53;37.03;101080.03;6041343;23;20467;-92
2022/03/08 09:33:40;;;;;;;10.10;8.63;;;;;;;9.63;35.73;101074.41;6067131;23;20038;-93
2022/03/08 09:36:45;;;;;;;11.75;8.70;;;;;;;9.46;36.00;101082.88;6038617;23;20090;-93
2022/03/08 09:39:37;;;;;;;;;;;;;;;9.50;36.72;101115.38;6126729;23;20020;-91
2022/03/08 09:43:33;;;;;;;14.05;8.48;;;;;;;9.55;36.25;101124.03;6122458;23;19919;-92
2022/03/08 09:46:34;;;;;;;10.60;8.57;;;;;;;9.55;35.96;101054.41;6142668;23;20022;-93
2022/03/08 09:49:44;;;;;;;11.20;8.85;;;;;;;10.16;35.20;101069.13;6215537;23;20020;-94
2022/03/08 09:52:55;;;;;;;10.60;9.07;;;;;;;10.75;34.32;101079.38;6224482;23;20018;-94
2022/03/08 09:59:59;;;;;;;9.70;7.88;;;;;;;11.64;32.16;101052.97;5953677;24;20053;-94
2022/03/08 10:03:03;;;;;;;9.70;7.75;;;;;;;12.29;30.39;101043.06;6032826;23;20128;-91
2022/03/08 10:06:42;;;;;;;;;;;;;;;;;;;;;
2022/03/08 10:22:34;;;;;;;10.55;7.47;;;;;;;12.63;30.15;101077.00;5916772;24;20043;-93
2022/03/08 10:29:53;;;;;;;;;;;;;;;;;;;;;
2022/03/08 10:40:52;;;;;;;8.80;7.00;;;;;;;14.18;26.82;101023.38;6197380;23;20016;-92
2022/03/08 10:44:44;;;;;;;9.25;7.28;;;;;;;14.15;26.53;101017.38;6252722;23;20023;-93
2022/03/08 10:51:44;;;;;;;;;;;;;;;;;;;;;
2022/03/08 10:54:56;;;;;;;;;;;;;;;;;;;;;
2022/03/08 11:02:22;;;;;;;9.07;6.88;;;;;;;15.27;25.44;101032.59;6154599;23;20484;-94
2022/03/08 11:05:14;;;;;;;8.88;6.72;;;;;;;15.75;24.20;100972.00;6127929;23;20017;-92
2022/03/08 11:08:44;;;;;;;;;;;;;;;;;;;;;
2022/03/08 11:12:21;;;;;;;7.30;6.30;;;;;;;17.31;22.46;101011.34;6039664;23;20608;-93
2022/03/08 11:20:19;;;;;;;8.68;6.40;;;;;;;18.64;20.96;101017.44;6070337;23;20093;-96
2022/03/08 11:23:28;;;;;;;7.00;6.30;;;;;;;18.63;20.64;100956.72;6067338;23;20025;-95
2022/03/08 11:25:59;;;;;;;9.13;6.70;;;;;;;18.78;20.96;100986.94;6067790;23;20164;-94
2022/03/08 11:28:32;;;;;;;8.15;5.72;;;;;;;19.49;19.69;100997.84;6067806;23;20019;-96
2022/03/08 11:31:24;;;;;;;7.55;5.22;;;;;;;19.27;19.29;100942.13;6045202;23;20204;-95
2022/03/08 11:34:12;;;;;;;8.03;5.47;;;;;;;19.53;19.08;100980.50;6073621;23;20018;-94
2022/03/08 11:44:59;;;;;;;6.22;4.68;;;;;;;19.64;17.93;100965.41;6246404;23;20023;-93
2022/03/08 11:52:19;;;;;;;5.38;4.70;;;;;;;17.34;19.50;100976.31;6156135;23;20655;-94
2022/03/08 11:58:23;;;;;;;5.50;5.00;;;;;;;15.18;22.16;100949.56;6266336;22;20023;-94
2022/03/08 12:01:24;;;;;;;7.10;4.85;;;;;;;14.13;22.69;100939.38;6281405;22;20031;-94
2022/03/08 12:04:27;;;;;;;7.05;5.22;;;;;;;13.78;23.46;100935.88;6280582;22;20024;-95
2022/03/08 12:07:25;;;;;;;7.70;4.85;;;;;;;13.41;24.09;100948.38;6257995;22;20123;-93
2022/03/08 12:10:24;;;;;;;8.25;4.88;;;;;;;13.26;24.22;100975.72;6276336;22;20022;-93
2022/03/08 12:13:13;;;;;;;7.38;5.00;;;;;;;12.62;24.48;100899.03;6284499;22;20070;-94
2022/03/08 12:16:09;;;;;;;10.38;7.10;;;;;;;12.84;25.22;100965.34;6275842;22;20016;-94
2022/03/08 12:18:49;;;;;;;6.63;5.30;;;;;;;12.90;25.05;100965.06;6275986;22;20134;-94
2022/03/08 12:22:01;;;;;;;8.18;5.28;;;;;;;13.03;25.03;100936.09;6269052;22;20630;-93
2022/03/08 12:24:46;;;;;;;7.90;5.30;;;;;;;13.33;24.24;100927.50;6282063;22;20022;-95
2022/03/08 12:27:13;;;;;;;;;;;;;;;13.97;23.65;100955.28;6284710;22;20011;-96
2022/03/08 12:30:21;;;;;;;7.20;5.68;;;;;;;14.62;22.98;100921.63;6287267;22;19903;-92
2022/03/08 12:33:10;;;;;;;10.45;5.22;;;;;;;15.89;21.83;100926.69;6293335;22;20059;-93
2022/03/08 12:39:56;;;;;;;5.63;5.07;;;;;;;18.32;19.16;100941.91;6294505;22;20003;-92
2022/03/08 12:51:09;;;;;;;8.23;5.18;;;;;;;18.64;18.58;100894.06;6288513;22;20040;-92
2022/03/08 12:53:56;;;;;;;6.30;4.78;;;;;;;18.17;18.54;100878.66;6285377;22;20019;-94
2022/03/08 12:56:46;;;;;;;5.90;4.55;;;;;;;18.75;17.71;100922.78;6276725;22;20019;-93
2022/03/08 12:59:32;;;;;;;5.53;4.38;;;;;;;19.25;18.35;100929.78;6255241;23;20368;-95
2022/03/08 13:02:11;;;;;;;4.60;4.13;;;;;;;19.99;17.12;100874.00;6247467;23;20008;-93
2022/03/08 13:04:41;;;;;;;6.00;4.57;;;;;;;20.15;16.71;100869.09;6245863;23;20015;-93
2022/03/08 13:07:28;;;;;;;7.22;4.68;;;;;;;20.10;16.19;100863.25;6194738;23;20016;-93
2022/03/08 13:10:04;;;;;;;6.53;4.60;;;;;;;20.43;16.40;100911.72;6247665;23;20012;-95
2022/03/08 13:13:28;;;;;;;9.30;4.90;;;;;;;21.06;15.97;100910.16;6241627;23;20016;-93
2022/03/08 13:15:56;;;;;;;6.15;4.75;;;;;;;21.48;15.68;100861.75;6247867;23;20032;-93
2022/03/08 13:18:36;;;;;;;5.50;4.97;;;;;;;21.12;15.97;100896.16;6242236;23;20331;-94
2022/03/08 13:21:11;;;;;;;6.30;4.68;;;;;;;21.05;15.56;100876.13;6219952;23;20012;-92
2022/03/08 13:42:45;;;;;;;8.10;5.10;;;;;;;22.92;14.21;100904.84;6261630;22;20027;-93
2022/03/08 13:45:44;;;;;;;6.95;4.63;;;;;;;21.75;14.41;100843.22;6212002;23;20020;-96
2022/03/08 13:48:28;;;;;;;5.85;4.68;;;;;;;20.59;16.00;100873.66;6208175;23;20021;-95
2022/03/08 13:51:06;;;;;;;5.75;4.72;;;;;;;19.36;16.55;100843.06;6184613;23;20020;-94
2022/03/08 13:53:38;;;;;;;8.27;5.15;;;;;;;18.70;17.48;100892.75;6209312;23;20061;-95
2022/03/08 13:56:06;;;;;;;7.40;5.22;;;;;;;18.84;17.92;100898.81;6185489;23;20038;-95
2022/03/08 13:58:59;;;;;;;7.47;4.88;;;;;;;20.02;16.71;100901.50;6179709;23;20040;-96
2022/03/08 14:01:40;;;;;;;;;;;;;;;;;;;;;
2022/03/08 14:04:25;;;;;;;10.32;4.93;;;;;;;20.87;15.49;100883.88;6256750;22;20020;-95
2022/03/08 14:06:56;;;;;;;7.10;4.93;;;;;;;22.04;14.74;100906.28;6280759;22;20075;-95
2022/03/08 14:09:26;;;;;;;7.38;4.80;;;;;;;21.88;14.19;100889.69;6287317;22;20063;-95
2022/03/08 14:11:58;;;;;;;5.78;4.70;;;;;;;21.62;14.66;100880.31;6289289;22;20011;-95
2022/03/08 14:14:28;;;;;;;6.18;4.57;;;;;;;22.44;13.75;100902.81;6286721;22;20097;-96
2022/03/08 14:17:01;;;;;;;6.90;4.43;;;;;;;22.40;14.00;100883.31;6285209;22;20059;-96
2022/03/08 14:19:52;;;;;;;5.67;4.67;;;;;;;22.56;13.53;100885.50;6279626;22;20020;-95
2022/03/08 14:22:19;;;;;;;5.55;4.95;;;;;;;22.10;13.79;100890.56;6283815;22;20015;-96
2022/03/08 14:25:01;;;;;;;6.50;4.85;;;;;;;21.81;14.13;100845.41;6296394;22;20019;-96
2022/03/08 14:27:28;;;;;;;6.70;4.68;;;;;;;21.51;13.99;100840.81;6259483;22;20054;-96
2022/03/08 14:30:08;;;;;;;5.78;4.00;;;;;;;21.61;14.02;100838.16;6278180;22;20085;-96
2022/03/08 14:32:39;;;;;;;4.93;4.43;;;;;;;21.99;14.04;100859.13;6281410;22;20055;-96
2022/03/08 14:35:17;;;;;;;5.63;4.68;;;;;;;21.96;13.94;100833.28;6278943;22;20016;-96
2022/03/08 14:37:48;;;;;;;6.00;4.63;;;;;;;21.93;14.08;100878.50;6258306;22;20019;-96
2022/03/08 14:40:43;;;;;;;4.82;4.25;;;;;;;21.68;14.74;100895.97;6283662;22;20026;-95
2022/03/08 14:43:13;;;;;;;5.10;4.50;;;;;;;22.38;13.75;100846.66;6252667;22;20031;-96
2022/03/08 14:45:51;;;;;;;8.63;4.50;;;;;;;22.69;13.97;100894.22;6275290;22;20095;-96
2022/03/08 14:48:43;;;;;;;8.52;4.28;;;;;;;21.11;15.03;100877.44;6277860;22;20024;-96
2022/03/08 14:51:11;;;;;;;5.50;4.28;;;;;;;19.55;15.98;100838.00;6279631;22;20046;-96
2022/03/08 14:53:43;;;;;;;5.38;4.13;;;;;;;19.26;16.46;100869.75;6278968;22;20012;-95
2022/03/08 14:56:15;;;;;;;5.43;4.20;;;;;;;18.31;17.00;100849.03;6279171;22;20075;-95
2022/03/08 14:58:48;;;;;;;5.82;4.78;;;;;;;17.08;18.55;100860.28;6250064;22;20019;-95
2022/03/08 15:01:18;;;;;;;5.72;4.22;;;;;;;16.06;19.29;100842.81;6255237;22;20079;-95
2022/03/08 15:03:47;;;;;;;5.05;4.53;;;;;;;15.34;19.74;100865.00;6280861;22;20015;-95
2022/03/08 15:06:17;;;;;;;5.80;4.70;;;;;;;14.66;20.79;100881.34;6279823;22;20020;-95
2022/03/08 15:08:46;;;;;;;7.20;5.15;;;;;;;13.56;21.69;100858.94;6281678;22;20077;-95
2022/03/08 15:11:21;;;;;;;6.82;4.85;;;;;;;12.82;22.63;100855.56;6257533;22;20684;-94
2022/03/08 15:13:52;;;;;;;7.20;5.38;;;;;;;12.65;23.29;100898.91;6255350;22;20008;-94
2022/03/08 15:16:22;;;;;;;5.38;4.88;;;;;;;12.44;23.69;100886.63;6286632;22;20062;-95
2022/03/08 15:18:50;;;;;;;5.82;5.18;;;;;;;12.39;24.08;100899.28;6280130;22;20018;-95
2022/03/08 15:21:17;;;;;;;5.65;5.05;;;;;;;12.17;24.65;100881.66;6283054;22;20019;-95
2022/03/08 15:23:49;;;;;;;7.60;4.95;;;;;;;11.97;25.00;100871.06;6281839;22;20099;-95
2022/03/08 15:26:21;;;;;;;8.75;5.05;;;;;;;11.89;25.31;100874.09;6281296;22;20015;-94
2022/03/08 15:28:52;;;;;;;7.78;5.28;;;;;;;11.70;25.07;100875.81;6281227;22;20035;-94
2022/03/08 15:31:26;;;;;;;8.05;5.15;;;;;;;11.61;25.75;100881.53;6282557;22;20016;-95
2022/03/08 15:33:54;;;;;;;5.95;5.35;;;;;;;11.30;26.08;100854.59;6282967;22;20011;-96
2022/03/08 15:36:22;;;;;;;8.07;5.50;;;;;;;11.04;26.53;100847.72;6286442;22;20098;-95
2022/03/08 15:38:58;;;;;;;8.60;5.75;;;;;;;11.03;26.72;100864.53;6280065;22;20015;-95
2022/03/08 15:41:26;;;;;;;7.47;5.35;;;;;;;10.90;27.26;100867.69;6281281;22;20341;-95
2022/03/08 15:43:55;;;;;;;9.45;5.55;;;;;;;10.96;26.88;100879.84;6226993;22;20015;-95
2022/03/08 15:46:26;;;;;;;7.73;5.53;;;;;;;10.81;26.95;100876.03;6280562;22;20099;-95
2022/03/08 15:48:56;;;;;;;9.27;5.97;;;;;;;10.55;27.12;100850.56;6276867;22;20022;-95
2022/03/08 15:51:24;;;;;;;7.57;5.30;;;;;;;10.43;26.75;100847.56;6279722;22;20012;-94
2022/03/08 15:53:52;;;;;;;8.63;5.95;;;;;;;10.19;27.46;100828.19;6251104;22;20025;-96
2022/03/08 15:56:26;;;;;;;6.22;5.25;;;;;;;10.08;26.75;100823.25;6257425;22;20320;-95
2022/03/08 15:58:55;;;;;;;8.88;5.53;;;;;;;10.21;26.82;100860.78;6282213;22;20038;-96
2022/03/08 16:01:27;;;;;;;8.75;5.75;;;;;;;10.19;27.04;100836.16;6283630;22;20038;-94
2022/03/08 16:03:54;;;;;;;6.68;4.95;;;;;;;9.93;26.88;100812.41;6284465;22;20020;-96
2022/03/08 16:06:27;;;;;;;7.20;5.32;;;;;;;10.00;27.68;100829.78;6282064;22;20007;-96
2022/03/08 16:08:57;;;;;;;8.02;5.38;;;;;;;10.00;27.39;100833.28;6279403;22;20517;-95
2022/03/08 16:11:37;;;;;;;8.27;5.97;;;;;;;10.08;27.87;100870.91;6281855;22;20012;-96
2022/03/08 16:14:13;;;;;;;9.05;5.90;;;;;;;9.88;27.69;100838.19;6284291;22;20094;-94
2022/03/08 16:16:42;;;;;;;7.78;5.20;;;;;;;9.86;27.57;100843.53;6280421;22;20470;-95
2022/03/08 16:19:15;;;;;;;7.20;5.35;;;;;;;9.90;27.61;100860.16;6276841;22;20020;-96
2022/03/08 16:21:43;;;;;;;8.80;5.30;;;;;;;9.55;27.98;100816.47;6278956;22;20703;-95
2022/03/08 16:24:11;;;;;;;7.60;5.10;;;;;;;9.50;27.20;100809.56;6279915;22;20012;-95
2022/03/08 16:26:40;;;;;;;7.22;5.43;;;;;;;9.63;27.40;100854.06;6282179;22;20027;-96
2022/03/08 16:29:09;;;;;;;8.98;5.32;;;;;;;9.49;27.99;100855.41;6282011;22;20069;-95
2022/03/08 16:31:37;;;;;;;8.10;5.35;;;;;;;9.55;28.19;100885.22;6287640;22;20019;-96
2022/03/08 16:34:07;;;;;;;8.90;5.43;;;;;;;9.28;27.88;100848.25;6286838;22;20041;-95
2022/03/08 16:36:39;;;;;;;8.35;5.68;;;;;;;9.23;28.13;100847.53;6260083;22;20094;-96
2022/03/08 16:39:11;;;;;;;9.30;5.68;;;;;;;8.92;28.31;100807.22;6253301;22;20122;-96
2022/03/08 16:41:49;;;;;;;8.85;5.80;;;;;;;8.85;28.36;100809.19;6273913;22;20063;-94
2022/03/08 16:44:17;;;;;;;7.40;5.75;;;;;;;8.84;28.46;100803.97;6221380;23;20021;-93
2022/03/08 16:47:06;;;;;;;8.57;6.32;;;;;;;8.77;28.81;100804.19;6195785;23;20047;-93
2022/03/08 16:49:34;;;;;;;11.00;6.32;;;;;;;9.03;29.11;100860.56;6215685;23;20464;-93
2022/03/08 16:52:06;;;;;;;8.77;6.10;;;;;;;8.92;29.23;100863.56;6217886;23;20021;-92
2022/03/08 16:54:35;;;;;;;8.85;5.93;;;;;;;8.96;29.66;100866.97;6217107;23;20079;-94
2022/03/08 16:57:04;;;;;;;10.35;5.97;;;;;;;8.85;29.42;100840.03;6218381;23;20024;-93
2022/03/08 16:59:50;;;;;;;8.50;6.03;;;;;;;8.76;29.24;100841.19;6215008;23;20068;-92
2022/03/08 17:02:17;;;;;;;8.85;6.00;;;;;;;8.44;29.64;100807.91;6218959;23;20023;-93
2022/03/08 17:04:44;;;;;;;8.98;6.32;;;;;;;8.67;29.85;100844.97;6219700;23;20030;-92
2022/03/08 17:07:11;;;;;;;9.15;6.38;;;;;;;8.48;29.69;100829.81;6215178;23;20019;-94
2022/03/08 17:09:43;;;;;;;11.68;6.60;;;;;;;8.51;30.58;100856.94;6217987;23;20352;-94
2022/03/08 17:12:10;;;;;;;16.38;9.27;;;;;;;8.14;30.54;100814.09;6218463;23;20099;-94
2022/03/08 17:14:59;;;;;;;16.92;9.20;;;;;;;8.14;30.70;100832.56;6196060;23;20056;-93
2022/03/08 17:17:31;;;;;;;20.58;9.50;;;;;;;7.96;30.97;100821.66;6225846;23;20030;-94
2022/03/08 17:20:42;;;;;;;16.05;9.27;;;;;;;8.05;31.34;100854.78;6216438;23;20064;-94
2022/03/08 17:23:23;;;;;;;14.40;8.40;;;;;;;8.14;31.20;100890.59;6229241;23;20021;-93
2022/03/08 17:25:57;;;;;;;12.38;7.20;;;;;;;8.18;31.17;100897.53;6231954;23;20518;-94
2022/03/08 17:28:31;;;;;;;10.77;6.90;;;;;;;7.84;31.53;100858.06;6226431;23;20020;-94
2022/03/08 17:31:13;;;;;;;13.77;6.95;;;;;;;8.01;31.87;100909.44;6226967;23;20310;-93
2022/03/08 17:33:47;;;;;;;9.52;6.80;;;;;;;7.86;32.00;100894.03;6214854;23;20302;-91
2022/03/08 17:36:14;;;;;;;10.43;6.40;;;;;;;7.47;32.34;100856.44;6216631;23;20042;-92
2022/03/08 17:39:02;;;;;;;10.18;6.82;;;;;;;7.52;32.33;100887.94;6213797;23;20012;-94
2022/03/08 17:42:05;;;;;;;9.60;6.50;;;;;;;7.43;32.72;100894.31;6186666;23;20031;-95
2022/03/08 17:44:33;;;;;;;11.25;6.78;;;;;;;7.46;33.16;100915.31;6214222;23;20020;-94
2022/03/08 17:47:11;;;;;;;11.20;7.32;;;;;;;7.41;33.38;100917.19;6217660;23;20025;-96
2022/03/08 17:49:40;;;;;;;10.68;6.55;;;;;;;7.29;33.56;100899.06;6214285;23;20020;-92
2022/03/08 17:52:09;;;;;;;12.10;7.18;;;;;;;7.25;33.76;100900.03;6192574;23;20013;-95
2022/03/08 17:55:05;;;;;;;10.18;7.10;;;;;;;7.27;33.94;100920.19;6219123;23;20027;-94
2022/03/08 17:57:43;;;;;;;11.13;7.13;;;;;;;7.09;34.08;100891.66;6221848;23;20032;-95
2022/03/08 18:00:16;;;;;;;12.30;7.63;;;;;;;6.86;34.23;100862.41;6202329;23;20021;-95
2022/03/08 18:02:56;;;;;;;12.48;7.32;;;;;;;7.12;34.44;100907.38;6221428;23;20456;-95
2022/03/08 18:05:37;;;;;;;10.68;7.00;;;;;;;7.13;34.18;100914.38;6200351;23;20025;-93
2022/03/08 18:08:20;;;;;;;10.75;6.93;;;;;;;7.17;34.65;100934.50;6105722;23;20062;-94
2022/03/08 18:10:52;;;;;;;10.98;7.07;;;;;;;7.07;35.05;100943.53;6185682;22;20335;-95
2022/03/08 18:13:19;;;;;;;9.10;6.47;;;;;;;6.72;35.50;100904.84;6283910;22;20491;-94
2022/03/08 18:16:02;;;;;;;11.77;6.43;;;;;;;6.63;35.89;100905.91;6175679;23;20107;-93
2022/03/08 18:19:08;;;;;;;10.55;7.00;;;;;;;6.81;36.33;100951.13;6222063;23;20020;-93
2022/03/08 18:22:24;;;;;;;11.07;6.97;;;;;;;6.69;36.96;100958.41;6214837;23;20519;-95
2022/03/08 18:24:59;;;;;;;10.88;7.13;;;;;;;6.24;37.22;100896.28;6212488;23;20059;-94
2022/03/08 18:27:49;;;;;;;11.27;7.05;;;;;;;6.08;37.41;100882.59;6211871;23;20021;-93
2022/03/08 18:30:54;;;;;;;12.63;7.40;;;;;;;6.34;37.30;100934.63;6209982;23;20387;-94
2022/03/08 18:33:42;;;;;;;13.50;8.23;;;;;;;6.35;37.05;100931.09;6211476;23;20094;-94
2022/03/08 18:36:10;;;;;;;10.70;6.78;;;;;;;6.33;36.63;100922.38;6213876;23;20008;-95
2022/03/08 18:38:56;;;;;;;11.55;7.45;;;;;;;6.40;36.10;100933.66;6194080;23;20195;-94
2022/03/08 18:41:58;;;;;;;10.85;7.53;;;;;;;6.24;36.28;100906.81;6215497;23;20092;-94
2022/03/08 18:44:43;;;;;;;13.40;8.05;;;;;;;6.41;36.96;100952.03;6217753;23;20328;-95
2022/03/08 18:48:34;;;;;;;12.95;7.63;;;;;;;6.53;36.50;100962.28;6152090;23;20457;-92
2022/03/08 18:51:12;;;;;;;12.57;7.40;;;;;;;6.47;36.79;100970.28;6161257;23;20017;-94
2022/03/08 18:53:45;;;;;;;12.35;6.93;;;;;;;6.09;37.16;100910.63;6160198;23;20040;-92
2022/03/08 18:56:27;;;;;;;12.68;7.68;;;;;;;5.97;37.49;100908.25;6132255;23;20017;-95
2022/03/08 18:59:35;;;;;;;10.70;6.97;;;;;;;5.99;37.50;100935.34;6155500;23;20475;-95
2022/03/08 19:02:37;;;;;;;12.23;6.95;;;;;;;5.88;38.39;100940.81;6162158;23;20045;-96
2022/03/08 19:16:52;;;;;;;12.15;7.03;;;;;;;5.63;38.35;100956.16;6139618;23;20041;-93
2022/03/08 19:20:10;;;;;;;13.65;7.45;;;;;;;5.77;38.95;100981.31;6111617;23;20029;-93
2022/03/08 19:30:14;;;;;;;13.73;9.10;;;;;;;5.38;40.50;100961.81;6199608;23;20024;-95
2022/03/08 19:40:34;;;;;;;17.75;9.43;;;;;;;5.15;41.12;100999.84;6184342;23;20067;-94
2022/03/08 19:43:45;;;;;;;15.60;9.68;;;;;;;4.86;42.33;100958.28;6193840;23;20069;-95
2022/03/08 19:47:16;;;;;;;17.92;9.10;;;;;;;4.69;42.44;100951.53;6164553;23;20021;-93
2022/03/08 19:50:03;;;;;;;18.42;8.93;;;;;;;4.53;42.36;100924.66;6208944;23;20016;-93
2022/03/08 19:52:59;;;;;;;18.65;9.70;;;;;;;4.84;42.57;100981.06;6220718;22;20017;-93
2022/03/08 19:55:47;;;;;;;;;;;;;;;4.80;42.67;100981.09;6223238;22;20020;-95
2022/03/08 19:58:40;;;;;;;;;;;;;;;;;;;;;
2022/03/08 20:01:36;;;;;;;18.27;10.00;;;;;;;4.44;43.21;100940.50;6196234;23;20017;-94
2022/03/08 20:04:27;;;;;;;17.45;9.27;;;;;;;4.38;43.70;100946.72;6194432;23;20057;-93
2022/03/08 20:07:11;;;;;;;18.45;9.73;;;;;;;4.21;44.21;100931.19;6193377;23;20053;-94
2022/03/08 20:09:57;;;;;;;19.02;9.55;;;;;;;4.52;44.00;100985.88;6188900;23;20013;-95
2022/03/08 20:12:48;;;;;;;17.75;9.35;;;;;;;4.46;43.76;100983.31;6211394;23;20420;-93
2022/03/08 20:15:30;;;;;;;26.50;10.75;;;;;;;4.37;43.87;100970.31;6220939;23;20009;-95
2022/03/08 20:18:42;;;;;;;20.33;9.65;;;;;;;4.14;43.85;100940.00;6219385;23;20019;-95
2022/03/08 20:21:32;;;;;;;16.40;9.73;;;;;;;4.07;44.10;100942.72;6218395;23;20020;-94
2022/03/08 20:24:27;;;;;;;15.20;10.02;;;;;;;4.34;43.97;100999.19;6218426;23;20012;-93
2022/03/08 20:26:58;;;;;;;18.90;11.30;;;;;;;4.17;44.73;100973.19;6222007;23;20020;-93
2022/03/08 20:29:28;;;;;;;23.75;11.98;;;;;;;4.12;45.21;100978.47;6238927;23;20081;-93
2022/03/08 20:31:56;;;;;;;18.88;11.20;;;;;;;3.88;44.49;100958.66;6231983;23;20023;-92
2022/03/08 20:34:34;;;;;;;19.65;11.13;;;;;;;3.77;45.66;100965.75;6261872;23;20074;-94
2022/03/08 20:37:08;;;;;;;13.70;8.55;;;;;;;3.59;46.19;100959.84;6261438;23;20020;-93
2022/03/08 20:39:52;;;;;;;17.95;11.27;;;;;;;3.79;46.16;101012.88;6261247;23;20043;-95
2022/03/08 20:42:25;;;;;;;18.10;11.05;;;;;;;3.43;46.97;100965.22;6261954;23;20017;-93
2022/03/08 20:44:57;;;;;;;15.32;10.73;;;;;;;3.53;47.41;100992.16;6264993;23;20012;-94
2022/03/08 20:47:35;;;;;;;20.63;11.10;;;;;;;3.35;47.97;100979.22;6265277;23;20107;-93
2022/03/08 20:50:10;;;;;;;19.95;11.48;;;;;;;3.32;47.56;100976.63;6252371;22;20110;-93
2022/03/08 20:52:41;;;;;;;20.10;11.13;;;;;;;3.53;47.38;101000.03;6260392;23;20035;-94
2022/03/08 20:55:24;;;;;;;23.90;12.02;;;;;;;3.54;47.06;101007.00;6216806;23;20035;-94
2022/03/08 20:58:06;;;;;;;20.13;11.10;;;;;;;3.44;47.95;100987.91;6250241;23;20087;-93
2022/03/08 21:00:40;;;;;;;19.38;12.02;;;;;;;3.38;47.86;100992.28;6253813;23;20023;-94
2022/03/08 21:03:20;;;;;;;20.20;11.18;;;;;;;3.26;47.69;100985.41;6252094;23;20043;-94
2022/03/08 21:06:02;;;;;;;22.67;11.02;;;;;;;3.20;48.09;100989.81;6240837;23;20020;-95
2022/03/08 21:08:30;;;;;;;18.77;10.93;;;;;;;3.33;48.10;101015.88;6250937;23;20020;-93
2022/03/08 21:11:37;;;;;;;25.20;12.18;;;;;;;3.36;48.34;101031.56;6178714;23;20311;-93
2022/03/08 21:14:07;;;;;;;18.92;11.23;;;;;;;3.10;48.31;100997.75;6224418;23;20506;-94
2022/03/08 21:16:41;;;;;;;16.83;10.68;;;;;;;3.13;48.08;101002.97;6222010;23;20403;-95
2022/03/08 21:19:18;;;;;;;19.38;11.73;;;;;;;3.08;48.78;100996.88;6222122;23;20020;-94
2022/03/08 21:22:00;;;;;;;22.35;11.40;;;;;;;3.10;48.14;101002.97;6223431;23;20060;-93
2022/03/08 21:24:55;;;;;;;20.30;10.93;;;;;;;3.00;47.88;100984.72;6228000;23;20015;-93
2022/03/08 21:27:26;;;;;;;23.13;11.35;;;;;;;3.15;47.74;101009.03;6221736;23;20012;-93
2022/03/08 21:30:08;;;;;;;21.38;11.82;;;;;;;3.03;47.91;100998.66;6192787;23;20086;-93
2022/03/08 21:32:35;;;;;;;20.80;11.27;;;;;;;3.11;48.10;101023.03;6213127;23;20083;-93
2022/03/08 21:35:16;;;;;;;20.75;12.48;;;;;;;3.18;48.60;101056.13;6205806;23;20027;-92
2022/03/08 21:37:44;;;;;;;23.90;12.65;;;;;;;2.83;49.19;101006.63;6218352;23;20055;-93
2022/03/08 21:40:38;;;;;;;25.52;13.38;;;;;;;2.74;50.13;101016.28;6216049;23;20023;-93